EGLT weather

Ascot Racecourse Heliport
Ascot Heath, England, United Kingdom

Public forecast

Using degrees Celsius for public forecast. Weather courtesy of forecast.io.

METAR (pilot weather report)

Closest report is London Heathrow Airport, 7.8 nm (14.5 km) ENE. Retrieved 2018/07/19 03:20 UTC (0 seconds ago):

EGLL 190320Z AUTO 15004KT 9999 NCD 15/12 Q1019 NOSIG

TAF (pilot weather forecast)

Forecast is more than 12 hours old.

Closest forecast is London Heathrow Airport, 7.8 nm (14.5 km) ENE. Retrieved 2018/07/18 00:19 UTC (1 day ago):

TAF EGLL 182255Z 1900/2006 23010KT 9999 FEW045 BECMG 1903/1905 16004KT